sensor_id;sensor_type;location;lat;lon;timestamp;pressure;altitude;pressure_sealevel;temperature;humidity
4398;BME280;2213;49.720;7.296;2023-03-04T00:02:20;98872.91;;;0.93;100.00
4398;BME280;2213;49.720;7.296;2023-03-04T00:04:51;98870.56;;;0.90;100.00
4398;BME280;2213;49.720;7.296;2023-03-04T00:07:22;98880.84;;;0.90;100.00
4398;BME280;2213;49.720;7.296;2023-03-04T00:09:52;98883.00;;;0.96;100.00
4398;BME280;2213;49.720;7.296;2023-03-04T00:12:21;98879.00;;;0.92;100.00
4398;BME280;2213;49.720;7.296;2023-03-04T00:14:52;98881.78;;;0.89;100.00
4398;BME280;2213;49.720;7.296;2023-03-04T00:17:22;98877.06;;;0.83;100.00
4398;BME280;2213;49.720;7.296;2023-03-04T00:19:53;98881.91;;;0.75;100.00
4398;BME280;2213;49.720;7.296;2023-03-04T00:22:25;98878.81;;;0.70;100.00
4398;BME280;2213;49.720;7.296;2023-03-04T00:24:55;98882.13;;;0.72;100.00
4398;BME280;2213;49.720;7.296;2023-03-04T00:27:25;98879.41;;;0.73;100.00
4398;BME280;2213;49.720;7.296;2023-03-04T00:29:56;98883.56;;;0.76;100.00
4398;BME280;2213;49.720;7.296;2023-03-04T00:32:25;98879.31;;;0.75;100.00
4398;BME280;2213;49.720;7.296;2023-03-04T00:34:54;98877.59;;;0.75;100.00
4398;BME280;2213;49.720;7.296;2023-03-04T00:37:24;98875.00;;;0.75;100.00
4398;BME280;2213;49.720;7.296;2023-03-04T00:39:55;98875.09;;;0.74;100.00
4398;BME280;2213;49.720;7.296;2023-03-04T00:42:25;98876.22;;;0.70;100.00
4398;BME280;2213;49.720;7.296;2023-03-04T00:44:55;98879.44;;;0.61;100.00
4398;BME280;2213;49.720;7.296;2023-03-04T00:47:24;98867.72;;;0.57;100.00
4398;BME280;2213;49.720;7.296;2023-03-04T00:49:54;98868.75;;;0.54;100.00
4398;BME280;2213;49.720;7.296;2023-03-04T00:52:26;98867.72;;;0.57;100.00
4398;BME280;2213;49.720;7.296;2023-03-04T00:54:56;98867.72;;;0.57;100.00
4398;BME280;2213;49.720;7.296;2023-03-04T00:57:25;98867.09;;;0.53;100.00
4398;BME280;2213;49.720;7.296;2023-03-04T00:59:55;98863.91;;;0.49;100.00
4398;BME280;2213;49.720;7.296;2023-03-04T01:02:25;98857.53;;;0.42;100.00
4398;BME280;2213;49.720;7.296;2023-03-04T01:04:54;98853.84;;;0.34;100.00
4398;BME280;2213;49.720;7.296;2023-03-04T01:07:26;98854.13;;;0.29;100.00
4398;BME280;2213;49.720;7.296;2023-03-04T01:09:57;98856.00;;;0.27;100.00
4398;BME280;2213;49.720;7.296;2023-03-04T01:12:27;98861.34;;;0.24;100.00
4398;BME280;2213;49.720;7.296;2023-03-04T01:14:57;98857.84;;;0.25;100.00
4398;BME280;2213;49.720;7.296;2023-03-04T01:17:27;98861.16;;;0.27;100.00
4398;BME280;2213;49.720;7.296;2023-03-04T01:19:58;98860.53;;;0.24;100.00
4398;BME280;2213;49.720;7.296;2023-03-04T01:22:28;98852.47;;;0.28;100.00
4398;BME280;2213;49.720;7.296;2023-03-04T01:24:58;98864.44;;;0.29;100.00
4398;BME280;2213;49.720;7.296;2023-03-04T01:27:27;98862.97;;;0.25;100.00
4398;BME280;2213;49.720;7.296;2023-03-04T01:29:56;98864.22;;;0.32;100.00
4398;BME280;2213;49.720;7.296;2023-03-04T01:32:27;98858.66;;;0.26;100.00
4398;BME280;2213;49.720;7.296;2023-03-04T01:34:56;98862.16;;;0.25;100.00
4398;BME280;2213;49.720;7.296;2023-03-04T01:37:27;98862.38;;;0.22;100.00
4398;BME280;2213;49.720;7.296;2023-03-04T01:39:56;98855.16;;;0.14;100.00
4398;BME280;2213;49.720;7.296;2023-03-04T01:42:30;98857.94;;;0.11;100.00
4398;BME280;2213;49.720;7.296;2023-03-04T01:45:01;98856.19;;;0.12;100.00
4398;BME280;2213;49.720;7.296;2023-03-04T01:47:33;98850.44;;;0.08;100.00
4398;BME280;2213;49.720;7.296;2023-03-04T01:50:10;98853.63;;;0.12;100.00
4398;BME280;2213;49.720;7.296;2023-03-04T01:52:46;98848.78;;;0.07;100.00
4398;BME280;2213;49.720;7.296;2023-03-04T01:55:18;98843.34;;;0.12;100.00
4398;BME280;2213;49.720;7.296;2023-03-04T01:57:50;98842.84;;;0.07;100.00
4398;BME280;2213;49.720;7.296;2023-03-04T02:00:28;98836.75;;;0.08;100.00
4398;BME280;2213;49.720;7.296;2023-03-04T02:03:01;98830.47;;;-0.01;100.00
4398;BME280;2213;49.720;7.296;2023-03-04T02:05:36;98831.91;;;-0.10;100.00
4398;BME280;2213;49.720;7.296;2023-03-04T02:08:08;98828.13;;;-0.04;100.00
4398;BME280;2213;49.720;7.296;2023-03-04T02:10:41;98825.84;;;-0.09;100.00
4398;BME280;2213;49.720;7.296;2023-03-04T02:13:11;98822.25;;;-0.06;100.00
4398;BME280;2213;49.720;7.296;2023-03-04T02:15:41;98826.47;;;-0.05;100.00
4398;BME280;2213;49.720;7.296;2023-03-04T02:18:16;98806.94;;;-0.08;100.00
4398;BME280;2213;49.720;7.296;2023-03-04T02:20:59;98805.38;;;-0.10;100.00
4398;BME280;2213;49.720;7.296;2023-03-04T02:23:44;98804.34;;;-0.20;100.00
4398;BME280;2213;49.720;7.296;2023-03-04T02:26:19;98801.38;;;-0.14;100.00
4398;BME280;2213;49.720;7.296;2023-03-04T02:28:51;98806.69;;;-0.17;100.00
4398;BME280;2213;49.720;7.296;2023-03-04T02:31:30;98803.63;;;-0.22;100.00
4398;BME280;2213;49.720;7.296;2023-03-04T02:34:03;98805.78;;;-0.16;100.00
4398;BME280;2213;49.720;7.296;2023-03-04T02:36:35;98800.84;;;-0.19;100.00
4398;BME280;2213;49.720;7.296;2023-03-04T02:39:11;98799.00;;;-0.17;100.00
4398;BME280;2213;49.720;7.296;2023-03-04T02:41:43;98802.50;;;-0.18;100.00
4398;BME280;2213;49.720;7.296;2023-03-04T02:44:18;98792.22;;;-0.18;100.00
4398;BME280;2213;49.720;7.296;2023-03-04T02:46:50;98788.09;;;-0.21;100.00
4398;BME280;2213;49.720;7.296;2023-03-04T02:49:22;98795.91;;;-0.22;100.00
4398;BME280;2213;49.720;7.296;2023-03-04T02:51:58;98798.69;;;-0.25;100.00
4398;BME280;2213;49.720;7.296;2023-03-04T02:54:28;98794.25;;;-0.23;100.00
4398;BME280;2213;49.720;7.296;2023-03-04T02:57:00;98785.63;;;-0.22;100.00
4398;BME280;2213;49.720;7.296;2023-03-04T02:59:31;98786.47;;;-0.22;100.00
4398;BME280;2213;49.720;7.296;2023-03-04T03:02:00;98789.53;;;-0.17;100.00
4398;BME280;2213;49.720;7.296;2023-03-04T03:04:31;98785.84;;;-0.13;100.00
4398;BME280;2213;49.720;7.296;2023-03-04T03:07:00;98792.03;;;-0.15;100.00
4398;BME280;2213;49.720;7.296;2023-03-04T03:09:29;98785.84;;;-0.13;100.00
4398;BME280;2213;49.720;7.296;2023-03-04T03:11:59;98785.03;;;-0.13;100.00
4398;BME280;2213;49.720;7.296;2023-03-04T03:14:29;98779.06;;;-0.14;100.00
4398;BME280;2213;49.720;7.296;2023-03-04T03:16:58;98794.38;;;-0.12;100.00
4398;BME280;2213;49.720;7.296;2023-03-04T03:19:28;98783.19;;;-0.11;100.00
4398;BME280;2213;49.720;7.296;2023-03-04T03:21:59;98779.50;;;-0.07;100.00
4398;BME280;2213;49.720;7.296;2023-03-04T03:24:30;98788.81;;;-0.06;100.00
4398;BME280;2213;49.720;7.296;2023-03-04T03:27:01;98781.13;;;-0.06;100.00
4398;BME280;2213;49.720;7.296;2023-03-04T03:29:31;98780.41;;;-0.08;100.00
4398;BME280;2213;49.720;7.296;2023-03-04T03:31:59;98780.19;;;-0.05;100.00
4398;BME280;2213;49.720;7.296;2023-03-04T03:34:28;98781.44;;;-0.11;100.00
4398;BME280;2213;49.720;7.296;2023-03-04T03:36:58;98776.94;;;-0.07;100.00
4398;BME280;2213;49.720;7.296;2023-03-04T03:39:28;98785.34;;;-0.05;100.00
4398;BME280;2213;49.720;7.296;2023-03-04T03:41:59;98776.38;;;0.00;100.00
4398;BME280;2213;49.720;7.296;2023-03-04T03:44:30;98772.06;;;0.01;100.00
4398;BME280;2213;49.720;7.296;2023-03-04T03:46:59;98771.03;;;0.04;100.00
4398;BME280;2213;49.720;7.296;2023-03-04T03:49:29;98776.50;;;-0.01;100.00
4398;BME280;2213;49.720;7.296;2023-03-04T03:51:59;98779.91;;;-0.01;100.00
4398;BME280;2213;49.720;7.296;2023-03-04T03:54:28;98782.56;;;-0.02;100.00
4398;BME280;2213;49.720;7.296;2023-03-04T03:56:59;98782.16;;;0.04;100.00
4398;BME280;2213;49.720;7.296;2023-03-04T03:59:29;98771.97;;;0.03;100.00
4398;BME280;2213;49.720;7.296;2023-03-04T04:01:59;98776.94;;;-0.07;100.00
4398;BME280;2213;49.720;7.296;2023-03-04T04:04:28;98776.59;;;-0.03;100.00
4398;BME280;2213;49.720;7.296;2023-03-04T04:06:58;98782.16;;;0.04;100.00
4398;BME280;2213;49.720;7.296;2023-03-04T04:09:27;98774.13;;;0.09;100.00
4398;BME280;2213;49.720;7.296;2023-03-04T04:11:57;98768.78;;;-0.01;100.00
4398;BME280;2213;49.720;7.296;2023-03-04T04:14:28;98769.19;;;0.06;100.00
4398;BME280;2213;49.720;7.296;2023-03-04T04:16:58;98766.13;;;0.13;100.00
4398;BME280;2213;49.720;7.296;2023-03-04T04:19:29;98764.69;;;0.09;100.00
4398;BME280;2213;49.720;7.296;2023-03-04T04:21:58;98770.31;;;0.14;100.00
4398;BME280;2213;49.720;7.296;2023-03-04T04:24:27;98770.31;;;0.14;100.00
4398;BME280;2213;49.720;7.296;2023-03-04T04:26:56;98770.03;;;0.06;100.00
4398;BME280;2213;49.720;7.296;2023-03-04T04:29:26;98767.25;;;0.09;100.00
4398;BME280;2213;49.720;7.296;2023-03-04T04:31:56;98778.84;;;0.15;100.00
4398;BME280;2213;49.720;7.296;2023-03-04T04:34:25;98768.47;;;0.16;100.00
4398;BME280;2213;49.720;7.296;2023-03-04T04:36:55;98767.66;;;0.16;100.00
4398;BME280;2213;49.720;7.296;2023-03-04T04:39:25;98765.00;;;0.17;100.00
4398;BME280;2213;49.720;7.296;2023-03-04T04:41:55;98773.50;;;0.18;100.00
4398;BME280;2213;49.720;7.296;2023-03-04T04:44:27;98771.53;;;0.21;100.00
4398;BME280;2213;49.720;7.296;2023-03-04T04:46:57;98769.59;;;0.25;100.00
4398;BME280;2213;49.720;7.296;2023-03-04T04:49:28;98768.56;;;0.27;100.00
4398;BME280;2213;49.720;7.296;2023-03-04T04:51:58;98759.22;;;0.26;100.00
4398;BME280;2213;49.720;7.296;2023-03-04T04:54:28;98763.22;;;0.30;100.00
4398;BME280;2213;49.720;7.296;2023-03-04T04:56:58;98761.66;;;0.28;100.00
4398;BME280;2213;49.720;7.296;2023-03-04T04:59:29;98762.59;;;0.27;100.00
4398;BME280;2213;49.720;7.296;2023-03-04T05:01:58;98763.22;;;0.30;100.00
4398;BME280;2213;49.720;7.296;2023-03-04T05:04:28;98769.06;;;0.32;100.00
4398;BME280;2213;49.720;7.296;2023-03-04T05:06:58;98765.56;;;0.33;100.00
4398;BME280;2213;49.720;7.296;2023-03-04T05:09:27;98773.38;;;0.32;100.00
4398;BME280;2213;49.720;7.296;2023-03-04T05:11:57;98766.72;;;0.29;100.00
4398;BME280;2213;49.720;7.296;2023-03-04T05:14:28;98768.84;;;0.35;100.00
4398;BME280;2213;49.720;7.296;2023-03-04T05:16:57;98764.44;;;0.37;100.00
4398;BME280;2213;49.720;7.296;2023-03-04T05:19:28;98769.06;;;0.45;100.00
4398;BME280;2213;49.720;7.296;2023-03-04T05:21:58;98758.16;;;0.41;100.00
4398;BME280;2213;49.720;7.296;2023-03-04T05:24:27;98761.13;;;0.48;100.00
4398;BME280;2213;49.720;7.296;2023-03-04T05:26:57;98765.84;;;0.54;100.00
4398;BME280;2213;49.720;7.296;2023-03-04T05:29:29;98760.56;;;0.56;100.00
4398;BME280;2213;49.720;7.296;2023-03-04T05:31:59;98768.09;;;0.59;100.00
4398;BME280;2213;49.720;7.296;2023-03-04T05:34:28;98766.31;;;0.59;100.00
4398;BME280;2213;49.720;7.296;2023-03-04T05:36:58;98762.13;;;0.58;100.00
4398;BME280;2213;49.720;7.296;2023-03-04T05:39:27;98767.88;;;0.62;100.00
4398;BME280;2213;49.720;7.296;2023-03-04T05:41:56;98777.34;;;0.61;100.00
4398;BME280;2213;49.720;7.296;2023-03-04T05:44:27;98772.22;;;0.61;100.00
4398;BME280;2213;49.720;7.296;2023-03-04T05:46:58;98773.25;;;0.59;100.00
4398;BME280;2213;49.720;7.296;2023-03-04T05:49:28;98778.19;;;0.62;100.00
4398;BME280;2213;49.720;7.296;2023-03-04T05:51:59;98777.22;;;0.63;100.00
4398;BME280;2213;49.720;7.296;2023-03-04T05:54:28;98779.63;;;0.66;100.00
4398;BME280;2213;49.720;7.296;2023-03-04T05:56:58;98776.00;;;0.68;100.00
4398;BME280;2213;49.720;7.296;2023-03-04T05:59:28;98766.41;;;0.70;100.00
4398;BME280;2213;49.720;7.296;2023-03-04T06:01:57;98773.00;;;0.74;100.00
4398;BME280;2213;49.720;7.296;2023-03-04T06:04:28;98777.09;;;0.77;100.00
4398;BME280;2213;49.720;7.296;2023-03-04T06:06:58;98772.75;;;0.77;100.00
4398;BME280;2213;49.720;7.296;2023-03-04T06:09:27;98770.81;;;0.81;100.00
4398;BME280;2213;49.720;7.296;2023-03-04T06:11:58;98772.22;;;0.85;100.00
4398;BME280;2213;49.720;7.296;2023-03-04T06:14:29;98779.72;;;0.88;100.00
4398;BME280;2213;49.720;7.296;2023-03-04T06:16:59;98777.91;;;0.90;100.00
4398;BME280;2213;49.720;7.296;2023-03-04T06:19:29;98779.41;;;0.92;100.00
4398;BME280;2213;49.720;7.296;2023-03-04T06:21:59;98782.47;;;0.97;100.00
4398;BME280;2213;49.720;7.296;2023-03-04T06:24:28;98783.06;;;1.01;100.00
4398;BME280;2213;49.720;7.296;2023-03-04T06:26:57;98791.41;;;1.05;100.00
4398;BME280;2213;49.720;7.296;2023-03-04T06:29:26;98791.09;;;1.09;100.00
4398;BME280;2213;49.720;7.296;2023-03-04T06:31:56;98792.28;;;1.16;100.00
4398;BME280;2213;49.720;7.296;2023-03-04T06:34:26;98794.41;;;1.22;100.00
4398;BME280;2213;49.720;7.296;2023-03-04T06:36:57;98798.44;;;1.26;100.00
4398;BME280;2213;49.720;7.296;2023-03-04T06:39:27;98797.19;;;1.32;100.00
4398;BME280;2213;49.720;7.296;2023-03-04T06:41:56;98802.81;;;1.37;100.00
4398;BME280;2213;49.720;7.296;2023-03-04T06:44:26;98809.25;;;1.42;100.00
4398;BME280;2213;49.720;7.296;2023-03-04T06:46:57;98809.06;;;1.45;100.00
4398;BME280;2213;49.720;7.296;2023-03-04T06:49:27;98807.09;;;1.49;100.00
4398;BME280;2213;49.720;7.296;2023-03-04T06:51:56;98808.47;;;1.53;100.00
4398;BME280;2213;49.720;7.296;2023-03-04T06:54:26;98816.72;;;1.58;100.00
4398;BME280;2213;49.720;7.296;2023-03-04T06:56:56;98812.38;;;1.59;100.00
4398;BME280;2213;49.720;7.296;2023-03-04T06:59:27;98812.16;;;1.62;100.00
4398;BME280;2213;49.720;7.296;2023-03-04T07:01:58;98811.94;;;1.65;100.00
4398;BME280;2213;49.720;7.296;2023-03-04T07:04:28;98820.38;;;1.67;100.00
4398;BME280;2213;49.720;7.296;2023-03-04T07:06:58;98817.59;;;1.70;100.00
4398;BME280;2213;49.720;7.296;2023-03-04T07:09:29;98812.91;;;1.75;100.00
4398;BME280;2213;49.720;7.296;2023-03-04T07:11:58;98818.06;;;1.75;100.00
4398;BME280;2213;49.720;7.296;2023-03-04T07:14:28;98822.06;;;1.79;100.00
4398;BME280;2213;49.720;7.296;2023-03-04T07:17:01;98826.75;;;1.85;100.00
4398;BME280;2213;49.720;7.296;2023-03-04T07:19:31;98829.31;;;1.85;100.00
4398;BME280;2213;49.720;7.296;2023-03-04T07:22:01;98829.94;;;1.88;100.00
4398;BME280;2213;49.720;7.296;2023-03-04T07:24:30;98834.84;;;1.91;100.00
4398;BME280;2213;49.720;7.296;2023-03-04T07:26:59;98832.88;;;1.95;100.00
4398;BME280;2213;49.720;7.296;2023-03-04T07:29:29;98827.47;;;1.98;100.00
4398;BME280;2213;49.720;7.296;2023-03-04T07:32:00;98834.19;;;2.00;100.00
4398;BME280;2213;49.720;7.296;2023-03-04T07:34:30;98825.41;;;2.03;100.00
4398;BME280;2213;49.720;7.296;2023-03-04T07:37:00;98829.41;;;2.07;100.00
4398;BME280;2213;49.720;7.296;2023-03-04T07:39:31;98839.59;;;2.09;100.00
4398;BME280;2213;49.720;7.296;2023-03-04T07:42:02;98828.22;;;2.11;100.00
4398;BME280;2213;49.720;7.296;2023-03-04T07:44:33;98830.34;;;2.17;100.00
4398;BME280;2213;49.720;7.296;2023-03-04T07:47:03;98840.44;;;2.20;100.00
4398;BME280;2213;49.720;7.296;2023-03-04T07:49:32;98838.34;;;2.25;100.00
4398;BME280;2213;49.720;7.296;2023-03-04T07:52:02;98832.94;;;2.28;100.00
4398;BME280;2213;49.720;7.296;2023-03-04T07:54:33;98832.81;;;2.30;100.00
4398;BME280;2213;49.720;7.296;2023-03-04T07:57:02;98832.47;;;2.34;100.00
4398;BME280;2213;49.720;7.296;2023-03-04T07:59:32;98827.09;;;2.37;100.00
4398;BME280;2213;49.720;7.296;2023-03-04T08:02:03;98828.50;;;2.41;100.00
4398;BME280;2213;49.720;7.296;2023-03-04T08:04:32;98827.34;;;2.45;100.00
4398;BME280;2213;49.720;7.296;2023-03-04T08:07:02;98831.31;;;2.49;100.00
4398;BME280;2213;49.720;7.296;2023-03-04T08:09:32;98837.88;;;2.53;100.00
4398;BME280;2213;49.720;7.296;2023-03-04T08:12:02;98831.44;;;2.59;100.00
4398;BME280;2213;49.720;7.296;2023-03-04T08:14:33;98831.09;;;2.64;100.00
4398;BME280;2213;49.720;7.296;2023-03-04T08:17:03;98828.38;;;2.65;100.00
4398;BME280;2213;49.720;7.296;2023-03-04T08:19:33;98825.69;;;2.67;100.00
4398;BME280;2213;49.720;7.296;2023-03-04T08:22:02;98838.94;;;2.73;100.00
4398;BME280;2213;49.720;7.296;2023-03-04T08:24:32;98831.19;;;2.73;100.00
4398;BME280;2213;49.720;7.296;2023-03-04T08:27:04;98829.88;;;2.79;100.00
4398;BME280;2213;49.720;7.296;2023-03-04T08:29:33;98828.63;;;2.84;100.00
4398;BME280;2213;49.720;7.296;2023-03-04T08:32:04;98833.41;;;2.89;100.00
4398;BME280;2213;49.720;7.296;2023-03-04T08:34:33;98836.69;;;2.91;100.00
4398;BME280;2213;49.720;7.296;2023-03-04T08:37:02;98845.97;;;2.93;100.00
4398;BME280;2213;49.720;7.296;2023-03-04T08:39:31;98828.72;;;2.94;100.00
4398;BME280;2213;49.720;7.296;2023-03-04T08:42:04;98828.47;;;2.97;100.00
4398;BME280;2213;49.720;7.296;2023-03-04T08:44:34;98836.91;;;2.99;100.00
4398;BME280;2213;49.720;7.296;2023-03-04T08:47:06;98831.88;;;2.97;100.00
4398;BME280;2213;49.720;7.296;2023-03-04T08:49:37;98848.78;;;3.01;100.00
4398;BME280;2213;49.720;7.296;2023-03-04T08:52:07;98844.88;;;3.07;100.00
4398;BME280;2213;49.720;7.296;2023-03-04T08:54:36;98844.78;;;3.09;100.00
4398;BME280;2213;49.720;7.296;2023-03-04T08:57:05;98846.97;;;3.13;100.00
4398;BME280;2213;49.720;7.296;2023-03-04T08:59:35;98838.06;;;3.17;100.00
4398;BME280;2213;49.720;7.296;2023-03-04T09:02:07;98844.63;;;3.21;100.00
4398;BME280;2213;49.720;7.296;2023-03-04T09:04:37;98850.25;;;3.26;100.00
4398;BME280;2213;49.720;7.296;2023-03-04T09:07:08;98841.31;;;3.30;100.00
4398;BME280;2213;49.720;7.296;2023-03-04T09:09:38;98844.34;;;3.35;100.00
4398;BME280;2213;49.720;7.296;2023-03-04T09:12:08;98850.94;;;3.39;100.00
4398;BME280;2213;49.720;7.296;2023-03-04T09:14:38;98848.34;;;3.39;100.00
4398;BME280;2213;49.720;7.296;2023-03-04T09:17:10;98842.94;;;3.42;100.00
4398;BME280;2213;49.720;7.296;2023-03-04T09:19:41;98849.75;;;3.43;100.00
4398;BME280;2213;49.720;7.296;2023-03-04T09:22:10;98848.66;;;3.46;100.00
4398;BME280;2213;49.720;7.296;2023-03-04T09:24:39;98856.06;;;3.50;100.00
4398;BME280;2213;49.720;7.296;2023-03-04T09:27:10;98850.66;;;3.53;100.00
4398;BME280;2213;49.720;7.296;2023-03-04T09:29:38;98855.09;;;3.51;100.00
4398;BME280;2213;49.720;7.296;2023-03-04T09:32:09;98840.78;;;3.47;100.00
4398;BME280;2213;49.720;7.296;2023-03-04T09:34:38;98856.75;;;3.52;100.00
4398;BME280;2213;49.720;7.296;2023-03-04T09:37:08;98859.09;;;3.55;100.00
4398;BME280;2213;49.720;7.296;2023-03-04T09:39:39;98854.50;;;3.59;100.00
4398;BME280;2213;49.720;7.296;2023-03-04T09:42:15;98860.34;;;3.61;100.00
4398;BME280;2213;49.720;7.296;2023-03-04T09:44:48;98858.59;;;3.62;100.00
4398;BME280;2213;49.720;7.296;2023-03-04T09:47:21;98856.72;;;3.64;100.00
4398;BME280;2213;49.720;7.296;2023-03-04T09:49:56;98852.38;;;3.64;100.00
4398;BME280;2213;49.720;7.296;2023-03-04T09:52:44;98855.66;;;3.66;100.00
4398;BME280;2213;49.720;7.296;2023-03-04T09:55:23;98846.81;;;3.69;100.00
4398;BME280;2213;49.720;7.296;2023-03-04T09:58:01;98850.78;;;3.73;100.00
4398;BME280;2213;49.720;7.296;2023-03-04T10:00:38;98845.38;;;3.76;100.00
4398;BME280;2213;49.720;7.296;2023-03-04T10:03:17;98854.88;;;3.75;100.00
4398;BME280;2213;49.720;7.296;2023-03-04T10:05:54;98851.00;;;3.81;100.00
4398;BME280;2213;49.720;7.296;2023-03-04T10:08:36;98851.56;;;3.84;100.00
4398;BME280;2213;49.720;7.296;2023-03-04T10:11:14;98851.44;;;3.86;100.00
4398;BME280;2213;49.720;7.296;2023-03-04T10:13:59;98854.16;;;3.84;100.00
4398;BME280;2213;49.720;7.296;2023-03-04T10:16:37;98847.22;;;3.85;100.00
4398;BME280;2213;49.720;7.296;2023-03-04T10:19:27;98844.63;;;3.85;100.00
4398;BME280;2213;49.720;7.296;2023-03-04T10:21:58;98852.00;;;3.89;100.00
4398;BME280;2213;49.720;7.296;2023-03-04T10:24:30;98857.63;;;3.94;100.00
4398;BME280;2213;49.720;7.296;2023-03-04T10:27:06;98847.84;;;3.98;100.00
4398;BME280;2213;49.720;7.296;2023-03-04T10:29:38;98846.66;;;4.02;100.00
4398;BME280;2213;49.720;7.296;2023-03-04T10:32:13;98852.78;;;4.01;100.00
4398;BME280;2213;49.720;7.296;2023-03-04T10:34:45;98857.59;;;4.05;100.00
4398;BME280;2213;49.720;7.296;2023-03-04T10:37:15;98850.88;;;4.03;100.00
4398;BME280;2213;49.720;7.296;2023-03-04T10:39:47;98846.41;;;4.05;100.00
4398;BME280;2213;49.720;7.296;2023-03-04T10:42:28;98841.91;;;4.07;100.00
4398;BME280;2213;49.720;7.296;2023-03-04T10:45:21;98844.25;;;4.10;100.00
4398;BME280;2213;49.720;7.296;2023-03-04T10:47:55;98839.34;;;4.07;100.00
4398;BME280;2213;49.720;7.296;2023-03-04T10:50:27;98839.34;;;4.07;100.00
4398;BME280;2213;49.720;7.296;2023-03-04T10:52:57;98840.03;;;4.09;100.00
4398;BME280;2213;49.720;7.296;2023-03-04T10:55:29;98829.53;;;4.11;100.00
4398;BME280;2213;49.720;7.296;2023-03-04T10:58:15;98823.44;;;4.12;100.00
4398;BME280;2213;49.720;7.296;2023-03-04T11:00:59;98827.59;;;4.03;100.00
4398;BME280;2213;49.720;7.296;2023-03-04T11:03:33;98830.38;;;4.11;100.00
4398;BME280;2213;49.720;7.296;2023-03-04T11:06:18;98823.69;;;4.09;100.00
4398;BME280;2213;49.720;7.296;2023-03-04T11:08:56;98818.78;;;4.05;100.00
4398;BME280;2213;49.720;7.296;2023-03-04T11:11:31;98826.03;;;4.12;100.00
4398;BME280;2213;49.720;7.296;2023-03-04T11:14:18;98822.91;;;4.18;100.00
4398;BME280;2213;49.720;7.296;2023-03-04T11:16:56;98821.97;;;4.19;100.00
4398;BME280;2213;49.720;7.296;2023-03-04T11:19:34;98825.81;;;4.24;100.00
4398;BME280;2213;49.720;7.296;2023-03-04T11:22:12;98821.09;;;4.29;100.00
4398;BME280;2213;49.720;7.296;2023-03-04T11:24:44;98816.59;;;4.31;100.00
4398;BME280;2213;49.720;7.296;2023-03-04T11:27:28;98811.28;;;4.33;100.00
4398;BME280;2213;49.720;7.296;2023-03-04T11:30:23;98812.78;;;4.35;100.00
4398;BME280;2213;49.720;7.296;2023-03-04T11:33:04;98821.94;;;4.39;100.00
4398;BME280;2213;49.720;7.296;2023-03-04T11:35:47;98810.38;;;4.43;100.00
4398;BME280;2213;49.720;7.296;2023-03-04T11:38:23;98813.66;;;4.45;100.00
4398;BME280;2213;49.720;7.296;2023-03-04T11:41:00;98810.13;;;4.46;100.00
4398;BME280;2213;49.720;7.296;2023-03-04T11:43:36;98806.34;;;4.50;100.00
4398;BME280;2213;49.720;7.296;2023-03-04T11:46:37;98803.47;;;4.53;100.00
4398;BME280;2213;49.720;7.296;2023-03-04T11:49:52;98803.47;;;4.53;100.00
4398;BME280;2213;49.720;7.296;2023-03-04T11:52:42;98798.16;;;4.55;100.00
4398;BME280;2213;49.720;7.296;2023-03-04T11:55:39;98798.31;;;4.53;100.00
4398;BME280;2213;49.720;7.296;2023-03-04T12:01:34;98787.69;;;4.56;100.00
4398;BME280;2213;49.720;7.296;2023-03-04T12:04:37;98784.00;;;4.59;100.00
4398;BME280;2213;49.720;7.296;2023-03-04T12:07:56;98785.53;;;4.62;100.00
4398;BME280;2213;49.720;7.296;2023-03-04T12:10:37;98773.09;;;4.65;100.00
4398;BME280;2213;49.720;7.296;2023-03-04T12:13:51;98778.16;;;4.67;100.00
4398;BME280;2213;49.720;7.296;2023-03-04T12:20:37;98766.03;;;4.67;100.00
4398;BME280;2213;49.720;7.296;2023-03-04T12:23:34;98767.69;;;4.68;100.00
4398;BME280;2213;49.720;7.296;2023-03-04T12:26:24;98758.13;;;4.69;100.00
4398;BME280;2213;49.720;7.296;2023-03-04T12:29:09;98760.88;;;4.67;100.00
4398;BME280;2213;49.720;7.296;2023-03-04T12:31:45;98760.59;;;4.70;100.00
4398;BME280;2213;49.720;7.296;2023-03-04T12:34:45;98754.88;;;4.76;100.00
4398;BME280;2213;49.720;7.296;2023-03-04T12:38:05;98757.63;;;4.75;100.00
4398;BME280;2213;49.720;7.296;2023-03-04T12:40:48;98750.25;;;4.80;100.00
4398;BME280;2213;49.720;7.296;2023-03-04T12:43:36;98751.78;;;4.82;100.00
4398;BME280;2213;49.720;7.296;2023-03-04T12:46:25;98749.03;;;4.84;100.00
4398;BME280;2213;49.720;7.296;2023-03-04T12:49:34;98757.25;;;4.89;100.00
4398;BME280;2213;49.720;7.296;2023-03-04T12:52:16;98753.69;;;4.90;100.00
4398;BME280;2213;49.720;7.296;2023-03-04T12:54:54;98748.22;;;4.83;100.00
4398;BME280;2213;49.720;7.296;2023-03-04T12:57:26;98744.69;;;4.84;100.00
4398;BME280;2213;49.720;7.296;2023-03-04T13:00:15;98745.22;;;4.88;100.00
4398;BME280;2213;49.720;7.296;2023-03-04T13:03:05;98750.28;;;4.89;100.00
4398;BME280;2213;49.720;7.296;2023-03-04T13:05:55;98737.06;;;4.92;100.00
4398;BME280;2213;49.720;7.296;2023-03-04T13:08:49;98740.44;;;4.93;100.00
4398;BME280;2213;49.720;7.296;2023-03-04T13:11:51;98725.44;;;4.87;100.00
4398;BME280;2213;49.720;7.296;2023-03-04T13:14:38;98717.00;;;4.94;100.00
4398;BME280;2213;49.720;7.296;2023-03-04T13:17:39;98713.31;;;4.97;100.00
4398;BME280;2213;49.720;7.296;2023-03-04T13:20:20;98716.34;;;5.02;100.00
4398;BME280;2213;49.720;7.296;2023-03-04T13:22:54;98707.34;;;5.06;100.00
4398;BME280;2213;49.720;7.296;2023-03-04T13:25:38;98708.72;;;5.10;100.00
4398;BME280;2213;49.720;7.296;2023-03-04T13:28:22;98702.28;;;5.14;100.00
4398;BME280;2213;49.720;7.296;2023-03-04T13:31:17;98708.00;;;5.18;100.00
4398;BME280;2213;49.720;7.296;2023-03-04T13:34:01;98706.66;;;5.23;100.00
4398;BME280;2213;49.720;7.296;2023-03-04T13:36:53;98700.38;;;5.26;100.00
4398;BME280;2213;49.720;7.296;2023-03-04T13:39:34;98696.56;;;5.30;100.00
4398;BME280;2213;49.720;7.296;2023-03-04T13:42:37;98696.28;;;5.33;100.00
4398;BME280;2213;49.720;7.296;2023-03-04T13:45:33;98691.22;;;5.31;100.00
4398;BME280;2213;49.720;7.296;2023-03-04T13:48:07;98702.00;;;5.36;100.00
4398;BME280;2213;49.720;7.296;2023-03-04T13:50:52;98696.81;;;5.36;100.00
4398;BME280;2213;49.720;7.296;2023-03-04T13:53:42;98684.41;;;5.40;100.00
4398;BME280;2213;49.720;7.296;2023-03-04T13:56:29;98691.91;;;5.43;100.00
4398;BME280;2213;49.720;7.296;2023-03-04T13:59:27;98687.13;;;5.48;100.00
4398;BME280;2213;49.720;7.296;2023-03-04T14:02:07;98673.47;;;5.46;100.00
4398;BME280;2213;49.720;7.296;2023-03-04T14:04:41;98676.59;;;5.49;100.00
4398;BME280;2213;49.720;7.296;2023-03-04T14:07:23;98677.41;;;5.50;100.00